Time;durP1;ratioP1;P1;durP2;ratioP2;P2;SDS_P1;SDS_P2;PMS_P1;PMS_P2;Temp;Humidity;BMP_temperature;BMP_pressure;BME280_temperature;BME280_humidity;BME280_pressure;Samples;Min_cycle;Max_cycle;Signal;HPM_P1;HPM_P2
2022/01/13 00:00:54;;;;;;;27.30;13.65;;;;;;;-1.16;98.06;101072.44;5075374;28;20013;-70
2022/01/13 00:03:19;;;;;;;28.08;12.85;;;;;;;-1.10;98.32;101087.25;5068506;28;20028;-71
2022/01/13 00:05:44;;;;;;;28.75;13.05;;;;;;;-1.11;98.17;101081.06;5065954;28;20091;-71
2022/01/13 00:08:10;;;;;;;30.10;13.85;;;;;;;-0.93;96.61;101102.38;5071763;28;20037;-71
2022/01/13 00:10:35;;;;;;;27.25;13.55;;;;;;;-1.07;96.61;101087.09;5070911;28;20025;-71
2022/01/13 00:13:07;;;;;;;27.50;15.25;;;;;;;-1.09;96.68;101088.97;5056481;28;20044;-71
2022/01/13 00:15:41;;;;;;;25.85;13.05;;;;;;;-1.05;96.03;101098.50;5058123;28;20021;-71
2022/01/13 00:18:16;;;;;;;28.80;13.95;;;;;;;-1.16;95.97;101098.13;5070860;28;20039;-71
2022/01/13 00:23:41;;;;;;;25.63;12.80;;;;;;;-1.07;95.20;101094.19;5068772;28;20040;-71
2022/01/13 00:26:08;;;;;;;27.50;13.15;;;;;;;-1.02;95.69;101113.41;5074310;28;20032;-71
2022/01/13 00:28:34;;;;;;;24.20;13.02;;;;;;;-1.06;95.99;101117.19;5070232;28;20348;-70
2022/01/13 00:31:04;;;;;;;25.50;12.90;;;;;;;-1.08;95.97;101113.72;5068662;28;20024;-71
2022/01/13 00:33:29;;;;;;;27.55;14.15;;;;;;;-1.06;96.84;101127.81;5062359;28;20048;-70
2022/01/13 00:36:00;;;;;;;29.33;13.07;;;;;;;-1.28;96.13;101081.00;5071968;28;20138;-71
2022/01/13 00:38:27;;;;;;;29.58;14.07;;;;;;;-1.03;96.68;101119.69;5068190;28;20031;-71
2022/01/13 00:40:53;;;;;;;31.40;13.80;;;;;;;-0.85;96.30;101137.41;5073011;28;20016;-71
2022/01/13 00:43:19;;;;;;;25.73;13.68;;;;;;;-0.82;96.12;101137.25;5066230;28;20469;-71
2022/01/13 00:45:46;;;;;;;27.73;13.48;;;;;;;-0.83;96.03;101132.88;5065648;28;20484;-71
2022/01/13 00:48:11;;;;;;;28.90;13.93;;;;;;;-0.82;95.90;101139.06;5074000;28;20430;-71
2022/01/13 00:50:37;;;;;;;27.52;13.45;;;;;;;-0.65;94.85;101146.25;5073959;28;20024;-71
2022/01/13 00:53:02;;;;;;;23.25;12.68;;;;;;;-0.62;95.54;101154.91;5072966;28;20095;-71
2022/01/13 00:55:43;;;;;;;25.50;12.68;;;;;;;-0.65;95.34;101148.91;5072896;28;20688;-71
2022/01/13 00:58:09;;;;;;;25.30;12.98;;;;;;;-0.66;95.76;101142.69;5071636;28;20114;-71
2022/01/13 01:00:34;;;;;;;24.83;13.55;;;;;;;-0.72;95.59;101140.34;5074674;28;20029;-71
2022/01/13 01:02:59;;;;;;;23.23;12.50;;;;;;;-0.68;95.78;101153.44;5069023;28;20028;-71
2022/01/13 01:05:25;;;;;;;26.13;13.05;;;;;;;-0.62;96.01;101154.06;5075511;28;20103;-71
2022/01/13 01:07:50;;;;;;;25.08;12.68;;;;;;;-0.65;95.29;101146.25;5069964;28;20036;-71
2022/01/13 01:10:15;;;;;;;23.80;12.38;;;;;;;-0.58;95.04;101152.97;5073059;28;20101;-71
2022/01/13 01:12:41;;;;;;;27.40;13.73;;;;;;;-0.56;94.68;101153.75;5069103;28;20373;-71
2022/01/13 01:15:07;;;;;;;22.85;12.50;;;;;;;-0.56;94.78;101148.44;5090948;28;20024;-71
2022/01/13 01:17:35;;;;;;;26.10;13.82;;;;;;;-0.59;94.39;101156.56;5067420;28;20021;-71
2022/01/13 01:20:06;;;;;;;24.27;12.52;;;;;;;-0.63;94.96;101150.53;5059295;28;20483;-71
2022/01/13 01:23:18;;;;;;;24.52;13.18;;;;;;;-0.61;94.60;101159.28;5075093;28;20036;-71
2022/01/13 01:27:53;;;;;;;25.13;12.55;;;;;;;-0.70;94.49;101160.59;5073083;28;20453;-71
2022/01/13 01:30:54;;;;;;;26.42;13.77;;;;;;;-0.79;93.81;101152.19;5068359;28;20056;-71
2022/01/13 01:33:15;;;;;;;25.92;13.05;;;;;;;-0.89;94.20;101147.34;5055702;28;20856;-71
2022/01/13 01:35:41;;;;;;;26.02;13.10;;;;;;;-0.96;94.74;101135.25;5072467;28;20020;-71
2022/01/13 01:38:07;;;;;;;28.35;14.63;;;;;;;-1.00;95.35;101152.28;5075560;28;20497;-71
2022/01/13 01:40:32;;;;;;;29.65;13.50;;;;;;;-1.11;96.05;101144.81;5074100;28;20475;-71
2022/01/13 01:42:57;;;;;;;27.58;13.77;;;;;;;-1.05;96.60;101169.38;5074074;28;20484;-71
2022/01/13 01:45:30;;;;;;;28.27;14.45;;;;;;;-1.08;97.15;101158.88;5058978;28;20032;-71
2022/01/13 01:47:55;;;;;;;25.48;13.43;;;;;;;-1.11;96.75;101147.47;5057670;28;20021;-71
2022/01/13 01:50:23;;;;;;;28.73;13.77;;;;;;;-1.12;95.95;101132.47;5064566;28;20025;-71
2022/01/13 01:52:52;;;;;;;27.00;13.35;;;;;;;-1.18;95.06;101151.34;5070464;28;20029;-71
2022/01/13 01:55:18;;;;;;;22.73;10.65;;;;;;;-1.23;95.95;101150.69;5066223;28;20108;-71
2022/01/13 01:57:47;;;;;;;27.42;13.98;;;;;;;-1.31;96.50;101136.91;5073813;28;20539;-71
2022/01/13 02:00:16;;;;;;;32.60;16.42;;;;;;;-1.43;96.83;101121.53;5060474;28;20427;-71
2022/01/13 02:02:43;;;;;;;28.30;14.50;;;;;;;-1.33;96.87;101134.31;5058318;28;20037;-71
2022/01/13 02:05:08;;;;;;;26.20;13.52;;;;;;;-1.45;97.25;101118.94;5065129;28;20037;-71
2022/01/13 02:07:34;;;;;;;27.48;14.38;;;;;;;-1.46;97.71;101124.34;5077645;28;20030;-71
2022/01/13 02:09:59;;;;;;;29.92;14.55;;;;;;;-1.53;98.41;101130.84;5078375;28;20025;-72
2022/01/13 02:12:34;;;;;;;29.02;14.73;;;;;;;-1.62;99.04;101129.47;5084835;28;20434;-71
2022/01/13 02:17:38;;;;;;;30.27;14.48;;;;;;;-1.61;99.79;101128.53;5075946;28;20050;-71
2022/01/13 02:20:05;;;;;;;28.25;15.38;;;;;;;-1.64;99.85;101118.91;5081822;28;20036;-71
2022/01/13 02:22:30;;;;;;;27.55;14.38;;;;;;;-1.75;100.00;101107.91;5089924;28;20050;-71
2022/01/13 02:24:56;;;;;;;31.20;15.30;;;;;;;-1.63;100.00;101117.13;5081383;28;20024;-71
2022/01/13 02:27:22;;;;;;;31.13;14.50;;;;;;;-1.67;100.00;101102.28;5077576;28;20032;-71
2022/01/13 02:29:47;;;;;;;29.45;15.27;;;;;;;-1.79;100.00;101114.28;5078462;28;20020;-71
2022/01/13 02:32:13;;;;;;;27.60;15.20;;;;;;;-1.93;100.00;101108.72;5074781;28;20471;-72
2022/01/13 02:34:39;;;;;;;30.42;16.10;;;;;;;-2.02;100.00;101102.91;5087620;28;20020;-71
2022/01/13 02:37:04;;;;;;;33.92;15.25;;;;;;;-2.05;100.00;101113.63;5091661;28;20084;-71
2022/01/13 02:39:30;;;;;;;28.95;15.35;;;;;;;-2.25;100.00;101090.63;5087305;28;20048;-71
2022/01/13 02:41:57;;;;;;;32.25;16.05;;;;;;;-2.30;100.00;101102.34;5080437;28;20024;-71
2022/01/13 02:44:24;;;;;;;33.40;17.25;;;;;;;-2.25;100.00;101105.69;5084652;28;20028;-71
2022/01/13 02:49:18;;;;;;;35.40;16.27;;;;;;;-2.47;100.00;101088.00;5058580;28;20028;-71
2022/01/13 02:51:45;;;;;;;35.33;17.33;;;;;;;-2.48;100.00;101088.06;5070288;28;20033;-70
2022/01/13 02:54:11;;;;;;;38.97;16.75;;;;;;;-2.47;100.00;101106.56;5069569;28;20029;-70
2022/01/13 02:56:38;;;;;;;33.08;16.38;;;;;;;-2.54;100.00;101098.91;5067693;28;20042;-70
2022/01/13 02:59:05;;;;;;;35.03;17.25;;;;;;;-2.52;100.00;101097.94;5060526;28;20062;-71
2022/01/13 03:01:31;;;;;;;37.72;16.92;;;;;;;-2.53;100.00;101092.72;5071634;28;20020;-70
2022/01/13 03:03:57;;;;;;;32.70;16.45;;;;;;;-2.55;100.00;101087.47;5069277;28;20028;-71
2022/01/13 03:06:34;;;;;;;37.45;16.83;;;;;;;-2.62;100.00;101059.50;5072733;28;20043;-70
2022/01/13 03:09:00;;;;;;;35.50;15.15;;;;;;;-2.56;100.00;101084.88;5072416;28;20027;-70
2022/01/13 03:11:33;;;;;;;31.23;15.57;;;;;;;-2.51;100.00;101099.66;5064130;28;20021;-71
2022/01/13 03:13:58;;;;;;;36.03;15.73;;;;;;;-2.48;100.00;101093.38;5058022;28;20130;-71
2022/01/13 03:16:24;;;;;;;31.63;16.48;;;;;;;-2.47;100.00;101101.25;5069127;28;20051;-71
2022/01/13 03:18:49;;;;;;;34.83;15.55;;;;;;;-2.53;100.00;101101.50;5057447;28;20033;-70
2022/01/13 03:21:15;;;;;;;36.58;16.80;;;;;;;-2.76;100.00;101061.84;5062211;28;20021;-70
2022/01/13 03:23:42;;;;;;;33.10;16.48;;;;;;;-2.65;100.00;101084.34;5066035;28;20047;-71
2022/01/13 03:26:07;;;;;;;35.08;15.43;;;;;;;-2.77;100.00;101065.44;5062474;28;20028;-70
2022/01/13 03:28:40;;;;;;;33.13;15.82;;;;;;;-2.69;100.00;101069.50;5055845;28;20027;-70
2022/01/13 03:31:07;;;;;;;34.13;16.45;;;;;;;-2.68;100.00;101091.53;5065536;28;20107;-71
2022/01/13 03:33:33;;;;;;;33.45;15.13;;;;;;;-2.70;100.00;101073.06;5066928;28;20029;-71
2022/01/13 03:35:59;;;;;;;32.25;15.75;;;;;;;-2.79;100.00;101094.63;5073765;28;20031;-70
2022/01/13 03:38:25;;;;;;;35.40;15.85;;;;;;;-3.00;100.00;101075.16;5075204;28;20363;-70
2022/01/13 03:40:51;;;;;;;35.33;16.02;;;;;;;-2.96;100.00;101086.47;5072626;28;20029;-70
2022/01/13 03:43:17;;;;;;;35.28;16.52;;;;;;;-3.04;100.00;101084.13;5061445;28;20021;-70
2022/01/13 03:45:44;;;;;;;35.92;17.15;;;;;;;-3.18;100.00;101076.75;5068272;28;20035;-70
2022/01/13 03:48:13;;;;;;;33.65;15.95;;;;;;;-2.95;100.00;101091.72;5074029;28;20036;-70
2022/01/13 03:50:39;;;;;;;33.08;16.35;;;;;;;-2.91;100.00;101098.66;5069403;28;20094;-70
2022/01/13 03:53:26;;;;;;;33.50;16.40;;;;;;;-2.78;100.00;101106.94;5075529;28;20390;-70
2022/01/13 03:56:55;;;;;;;36.88;15.98;;;;;;;-2.75;100.00;101103.31;5066268;28;20048;-70
2022/01/13 03:59:21;;;;;;;34.17;16.35;;;;;;;-2.75;100.00;101095.34;5065423;28;20108;-70
2022/01/13 04:02:09;;;;;;;32.75;15.52;;;;;;;-2.90;100.00;101088.91;5068136;28;20158;-71
2022/01/13 04:04:42;;;;;;;37.20;16.48;;;;;;;-3.08;100.00;101087.84;5065284;28;20104;-70
2022/01/13 04:07:25;;;;;;;39.17;16.80;;;;;;;-3.11;100.00;101101.22;5074052;28;20032;-70
2022/01/13 04:09:50;;;;;;;31.70;14.90;;;;;;;-2.97;100.00;101104.16;5063787;28;20509;-71
2022/01/13 04:12:19;;;;;;;33.88;16.02;;;;;;;-3.02;100.00;101100.84;5072218;28;20024;-71
2022/01/13 04:14:48;;;;;;;31.05;14.98;;;;;;;-3.02;100.00;101095.53;5067717;28;20048;-70
2022/01/13 04:17:15;;;;;;;29.15;14.82;;;;;;;-3.12;100.00;101102.13;5070853;28;20526;-70
2022/01/13 04:19:41;;;;;;;31.40;15.35;;;;;;;-3.19;100.00;101092.72;5068816;28;20020;-71
2022/01/13 04:22:08;;;;;;;32.78;14.35;;;;;;;-3.47;100.00;101079.66;5069312;28;20635;-70
2022/01/13 04:24:35;;;;;;;27.42;12.63;;;;;;;-3.35;100.00;101109.19;5069675;28;20033;-70
2022/01/13 04:27:01;;;;;;;28.90;14.07;;;;;;;-3.49;100.00;101097.38;5061145;28;20029;-70
2022/01/13 04:29:36;;;;;;;27.88;14.18;;;;;;;-3.50;100.00;101107.09;5063997;28;20025;-71
2022/01/13 04:32:03;;;;;;;29.13;13.77;;;;;;;-3.55;100.00;101098.47;5067642;28;20024;-70
2022/01/13 04:34:29;;;;;;;29.95;13.30;;;;;;;-3.53;100.00;101100.13;5069706;28;20094;-70
2022/01/13 04:36:56;;;;;;;30.08;15.23;;;;;;;-3.55;100.00;101087.88;5058425;28;20064;-72
2022/01/13 04:39:21;;;;;;;31.42;15.20;;;;;;;-3.60;100.00;101071.31;5068025;28;20028;-72
2022/01/13 04:41:48;;;;;;;30.75;14.10;;;;;;;-3.39;100.00;101104.91;5062526;28;20060;-72
2022/01/13 04:44:19;;;;;;;31.27;14.60;;;;;;;-3.60;100.00;101103.06;5069038;28;20039;-73
2022/01/13 04:46:45;;;;;;;32.47;14.77;;;;;;;-3.34;100.00;101113.53;5072994;28;20117;-73
2022/01/13 04:49:11;;;;;;;32.92;14.52;;;;;;;-3.49;100.00;101070.91;5056168;28;20033;-72
2022/01/13 04:51:39;;;;;;;28.38;14.45;;;;;;;-3.43;100.00;101086.53;5062295;28;20115;-73
2022/01/13 04:54:05;;;;;;;30.88;13.98;;;;;;;-3.42;100.00;101118.25;5061813;28;20034;-73
2022/01/13 04:56:39;;;;;;;37.08;15.05;;;;;;;-3.35;100.00;101124.19;5069476;28;20032;-73
2022/01/13 04:59:05;;;;;;;34.22;15.13;;;;;;;-3.63;100.00;101097.88;5063120;28;20067;-75
2022/01/13 05:01:31;;;;;;;30.92;14.63;;;;;;;-3.63;100.00;101117.25;5056262;28;20453;-76
2022/01/13 05:03:56;;;;;;;34.15;15.93;;;;;;;-3.71;100.00;101113.19;5056021;28;20107;-76
2022/01/13 05:06:22;;;;;;;35.90;15.40;;;;;;;-3.82;100.00;101101.22;5063852;28;20029;-76
2022/01/13 05:08:48;;;;;;;35.58;15.73;;;;;;;-3.68;100.00;101115.72;5070917;28;20115;-72
2022/01/13 05:11:14;;;;;;;34.33;16.02;;;;;;;-3.68;100.00;101102.50;5067825;28;20024;-76
2022/01/13 05:13:39;;;;;;;34.00;16.20;;;;;;;-3.61;100.00;101102.22;5061272;28;20152;-77
2022/01/13 05:16:06;;;;;;;31.63;14.70;;;;;;;-3.75;100.00;101096.53;5074516;28;20413;-75
2022/01/13 05:21:37;;;;;;;37.58;14.45;;;;;;;-3.85;100.00;101069.59;5063120;28;20032;-75
2022/01/13 05:24:02;;;;;;;33.38;13.50;;;;;;;-3.79;100.00;101106.38;5072543;28;20031;-77
2022/01/13 05:26:27;;;;;;;31.27;14.80;;;;;;;-3.84;100.00;101113.63;5073736;28;20020;-75
2022/01/13 05:28:53;;;;;;;31.42;14.18;;;;;;;-3.99;100.00;101111.50;5073547;28;20028;-74
2022/01/13 05:31:18;;;;;;;31.85;14.95;;;;;;;-4.09;100.00;101104.81;5067894;28;20037;-78
2022/01/13 05:33:43;;;;;;;39.58;15.75;;;;;;;-4.07;100.00;101113.56;5069110;28;20143;-76
2022/01/13 05:36:09;;;;;;;36.20;15.80;;;;;;;-3.98;100.00;101135.28;5065531;28;20056;-75
2022/01/13 05:38:34;;;;;;;34.95;15.15;;;;;;;-4.09;100.00;101121.53;5072182;28;20020;-76
2022/01/13 05:41:00;;;;;;;36.63;16.45;;;;;;;-4.02;100.00;101136.28;5061380;28;20127;-74
2022/01/13 05:43:26;;;;;;;38.47;16.70;;;;;;;-4.08;100.00;101119.78;5063747;28;20109;-75
2022/01/13 05:45:51;;;;;;;37.45;16.27;;;;;;;-3.97;100.00;101122.91;5064620;28;20028;-76
2022/01/13 05:48:17;;;;;;;39.05;16.80;;;;;;;-4.01;100.00;101100.13;5060822;28;20682;-73
2022/01/13 05:50:42;;;;;;;41.15;19.42;;;;;;;-4.08;100.00;101117.13;5065232;28;20437;-74
2022/01/13 05:53:08;;;;;;;40.15;16.48;;;;;;;-4.13;100.00;101119.06;5065592;28;20138;-74
2022/01/13 05:55:33;;;;;;;39.75;17.75;;;;;;;-4.08;100.00;101120.63;5064857;28;20035;-73
2022/01/13 05:57:59;;;;;;;39.58;17.17;;;;;;;-4.05;100.00;101135.53;5070894;28;20020;-73
2022/01/13 06:00:25;;;;;;;35.10;15.18;;;;;;;-4.14;100.00;101130.53;5059824;28;20054;-73
2022/01/13 06:02:51;;;;;;;35.78;15.88;;;;;;;-4.07;100.00;101129.44;5070712;28;20107;-74
2022/01/13 06:05:18;;;;;;;38.00;16.00;;;;;;;-4.13;100.00;101138.44;5063948;28;20147;-75
2022/01/13 06:07:44;;;;;;;37.80;15.80;;;;;;;-4.03;100.00;101133.72;5067145;28;20389;-75
2022/01/13 06:10:13;;;;;;;34.00;14.73;;;;;;;-4.04;100.00;101143.38;5064432;28;20510;-72
2022/01/13 06:12:39;;;;;;;33.20;16.05;;;;;;;-4.07;100.00;101143.50;5065026;28;20033;-73
2022/01/13 06:15:07;;;;;;;34.13;15.93;;;;;;;-4.10;100.00;101135.69;5069261;28;20029;-75
2022/01/13 06:17:33;;;;;;;33.75;14.88;;;;;;;-4.11;100.00;101130.44;5063926;28;20107;-72
2022/01/13 06:19:59;;;;;;;31.42;14.77;;;;;;;-4.13;100.00;101127.00;5066514;28;20048;-76
2022/01/13 06:22:25;;;;;;;33.78;14.70;;;;;;;-4.18;100.00;101128.00;5073144;28;20097;-74
2022/01/13 06:24:52;;;;;;;37.35;15.23;;;;;;;-4.19;100.00;101117.50;5062106;28;20454;-73
2022/01/13 06:27:18;;;;;;;33.90;14.82;;;;;;;-4.32;100.00;101097.69;5060354;28;20021;-73
2022/01/13 06:29:43;;;;;;;35.97;15.15;;;;;;;-4.39;100.00;101081.19;5067148;28;20028;-73
2022/01/13 06:32:08;;;;;;;33.10;14.73;;;;;;;-4.23;100.00;101132.59;5070446;28;20113;-75
2022/01/13 06:34:34;;;;;;;36.60;14.35;;;;;;;-4.26;100.00;101132.69;5069611;28;20028;-72
2022/01/13 06:36:59;;;;;;;32.38;14.20;;;;;;;-4.38;100.00;101126.97;5066631;28;20090;-75
2022/01/13 06:39:24;;;;;;;34.50;15.10;;;;;;;-4.39;100.00;101123.47;5068600;28;20438;-77
2022/01/13 06:41:50;;;;;;;34.85;14.32;;;;;;;-4.26;100.00;101134.47;5058988;28;20114;-72
2022/01/13 06:44:16;;;;;;;35.58;14.88;;;;;;;-4.19;100.00;101142.16;5062331;28;20052;-74
2022/01/13 06:46:41;;;;;;;33.60;14.45;;;;;;;-4.27;100.00;101132.75;5062813;28;20047;-72
2022/01/13 06:49:06;;;;;;;32.05;13.88;;;;;;;-4.28;100.00;101131.88;5052095;28;20029;-74
2022/01/13 06:51:32;;;;;;;28.70;14.27;;;;;;;-4.27;100.00;101157.41;5061911;28;20048;-72
2022/01/13 06:53:57;;;;;;;33.50;14.15;;;;;;;-4.31;100.00;101147.00;5064456;28;20040;-69
2022/01/13 06:56:24;;;;;;;32.60;13.68;;;;;;;-4.30;100.00;101157.50;5063468;28;20040;-69
2022/01/13 06:58:51;;;;;;;32.90;13.95;;;;;;;-4.46;100.00;101154.50;5073553;28;20024;-72
2022/01/13 07:01:18;;;;;;;34.85;14.32;;;;;;;-4.41;100.00;101163.13;5065778;28;20050;-77
2022/01/13 07:03:43;;;;;;;35.20;14.82;;;;;;;-4.31;100.00;101186.63;5064720;28;20123;-70
2022/01/13 07:06:09;;;;;;;30.85;13.52;;;;;;;-4.30;100.00;101177.78;5066403;28;20111;-74
2022/01/13 07:08:34;;;;;;;31.80;13.95;;;;;;;-4.37;100.00;101161.28;5066494;28;20054;-73
2022/01/13 07:11:03;;;;;;;32.40;13.90;;;;;;;-4.37;100.00;101161.28;5068226;28;20029;-76
2022/01/13 07:13:29;;;;;;;29.88;14.15;;;;;;;-4.23;100.00;101190.75;5061621;28;20024;-72
2022/01/13 07:15:55;;;;;;;33.70;14.93;;;;;;;-4.15;100.00;101182.56;5067016;28;20029;-71
2022/01/13 07:18:21;;;;;;;33.95;13.68;;;;;;;-4.22;100.00;101183.66;5061949;28;20051;-67
2022/01/13 07:20:48;;;;;;;31.45;13.75;;;;;;;-4.20;100.00;101182.69;5060901;28;20070;-71
2022/01/13 07:23:13;;;;;;;33.78;14.30;;;;;;;-4.20;100.00;101166.84;5063366;28;20421;-72
2022/01/13 07:25:39;;;;;;;29.60;12.88;;;;;;;-4.02;100.00;101198.88;5066117;28;20034;-71
2022/01/13 07:28:05;;;;;;;28.42;13.13;;;;;;;-4.05;100.00;101180.47;5068191;28;20107;-72
2022/01/13 07:30:32;;;;;;;30.60;13.25;;;;;;;-4.05;100.00;101172.53;5056688;28;20016;-75
2022/01/13 07:32:57;;;;;;;31.92;13.45;;;;;;;-3.70;100.00;101196.91;5057266;28;20025;-72
2022/01/13 07:35:22;;;;;;;30.33;14.02;;;;;;;-3.57;100.00;101192.91;5065712;28;20058;-72
2022/01/13 07:37:48;;;;;;;30.27;14.82;;;;;;;-3.61;100.00;101191.31;5064503;28;20032;-71
2022/01/13 07:40:14;;;;;;;31.95;13.73;;;;;;;-3.61;100.00;101199.25;5084598;28;20035;-70
2022/01/13 07:42:46;;;;;;;34.65;13.35;;;;;;;-3.71;100.00;101181.97;5075626;28;20032;-74
2022/01/13 07:45:13;;;;;;;27.38;13.00;;;;;;;-3.58;100.00;101197.34;5081581;28;20059;-75
2022/01/13 07:47:38;;;;;;;33.22;13.52;;;;;;;-3.59;100.00;101187.69;5081271;28;20213;-73
2022/01/13 07:50:06;;;;;;;29.45;13.40;;;;;;;-3.45;100.00;101187.19;5088306;28;20031;-76
2022/01/13 07:52:31;;;;;;;25.77;13.15;;;;;;;-3.31;100.00;101192.81;5075394;28;20028;-75
2022/01/13 07:54:57;;;;;;;29.85;13.80;;;;;;;-3.56;100.00;101147.03;5085773;28;20024;-77
2022/01/13 07:57:22;;;;;;;31.45;14.15;;;;;;;-3.38;100.00;101191.34;5086197;28;20049;-76
2022/01/13 07:59:48;;;;;;;31.08;14.23;;;;;;;-3.35;100.00;101204.47;5080511;28;20489;-75
2022/01/13 08:02:13;;;;;;;29.90;13.50;;;;;;;-3.50;100.00;101165.31;5078888;28;20028;-76
2022/01/13 08:04:39;;;;;;;30.55;14.07;;;;;;;-3.14;100.00;101204.59;5063833;28;20399;-75
2022/01/13 08:07:07;;;;;;;29.30;14.82;;;;;;;-3.23;100.00;101163.41;5068603;28;20111;-78
2022/01/13 08:09:32;;;;;;;44.22;18.50;;;;;;;-3.05;100.00;101183.06;5059242;28;20076;-75
2022/01/13 08:11:58;;;;;;;41.85;18.83;;;;;;;-3.03;100.00;101162.69;5073567;28;20055;-72
2022/01/13 08:14:25;;;;;;;45.10;19.33;;;;;;;-2.73;100.00;101189.75;5064267;28;20066;-71
2022/01/13 08:16:55;;;;;;;38.30;18.27;;;;;;;-2.71;100.00;101195.00;5068186;28;20036;-71
2022/01/13 08:22:05;;;;;;;33.67;16.05;;;;;;;-2.38;100.00;101191.91;5086428;28;20116;-71
2022/01/13 08:24:30;;;;;;;31.88;15.30;;;;;;;-2.34;100.00;101196.19;5073772;28;20032;-72
2022/01/13 08:26:56;;;;;;;30.77;14.93;;;;;;;-2.35;100.00;101179.44;5081633;28;20287;-75
2022/01/13 08:29:21;;;;;;;28.77;14.57;;;;;;;-2.20;100.00;101172.63;5082499;28;20029;-73
2022/01/13 08:31:46;;;;;;;39.85;18.83;;;;;;;-2.00;99.66;101179.75;5082121;28;20037;-75
2022/01/13 08:34:13;;;;;;;47.60;21.35;;;;;;;-1.42;99.14;101192.28;5072882;28;20082;-73
2022/01/13 08:36:39;;;;;;;45.30;21.30;;;;;;;-1.30;94.32;101189.09;5066758;28;20035;-73
2022/01/13 08:39:04;;;;;;;42.17;19.95;;;;;;;-1.05;92.94;101194.13;5061932;28;20409;-72
2022/01/13 08:41:29;;;;;;;36.60;17.50;;;;;;;-0.93;92.67;101174.97;5066180;28;20157;-72
2022/01/13 08:43:55;;;;;;;36.47;17.65;;;;;;;-0.62;92.37;101197.47;5061415;28;20029;-72
2022/01/13 08:46:21;;;;;;;35.10;18.27;;;;;;;-0.43;91.53;101176.16;5062340;28;20024;-72
2022/01/13 08:48:47;;;;;;;33.05;16.15;;;;;;;-0.14;91.09;101173.84;5065685;28;20028;-73
2022/01/13 08:51:12;;;;;;;33.85;16.67;;;;;;;0.23;88.92;101188.81;5066974;28;20047;-73
2022/01/13 08:53:38;;;;;;;33.97;17.23;;;;;;;0.32;86.49;101192.84;5066643;28;20047;-73
2022/01/13 08:56:04;;;;;;;36.55;18.35;;;;;;;0.16;85.97;101200.75;5069694;28;20032;-71
2022/01/13 08:58:30;;;;;;;43.35;19.00;;;;;;;0.08;85.12;101185.16;5066117;28;20037;-76
2022/01/13 09:00:56;;;;;;;38.35;18.15;;;;;;;0.23;82.89;101180.84;5065897;28;20031;-72
2022/01/13 09:03:21;;;;;;;31.55;16.17;;;;;;;0.48;81.23;101188.44;5062836;28;20055;-72
2022/01/13 09:05:47;;;;;;;31.90;16.08;;;;;;;0.32;80.72;101166.22;5068147;28;20106;-72
2022/01/13 09:08:12;;;;;;;28.65;14.98;;;;;;;0.56;80.70;101180.88;5073194;28;20504;-74
2022/01/13 09:10:40;;;;;;;30.23;16.05;;;;;;;0.75;80.54;101170.13;5072343;28;20025;-72
2022/01/13 09:13:15;;;;;;;27.23;14.95;;;;;;;0.72;77.99;101148.13;5067316;28;20512;-71
2022/01/13 09:15:46;;;;;;;31.90;16.10;;;;;;;0.85;79.02;101166.00;5063906;28;20029;-74
2022/01/13 09:18:48;;;;;;;27.35;14.98;;;;;;;0.98;76.91;101158.22;5068613;28;20040;-74
2022/01/13 09:21:00;;;;;;;29.85;15.27;;;;;;;1.45;78.06;101143.19;5062523;28;20041;-74
2022/01/13 09:23:27;;;;;;;33.65;15.95;;;;;;;1.49;76.03;101172.28;5074898;28;20048;-74
2022/01/13 09:25:54;;;;;;;31.08;16.08;;;;;;;2.17;74.64;101162.97;5086683;28;20028;-74
2022/01/13 09:28:20;;;;;;;30.08;15.00;;;;;;;2.55;74.52;101151.81;5072588;28;20426;-73
2022/01/13 09:30:45;;;;;;;29.42;15.82;;;;;;;2.40;74.70;101148.25;5071334;28;20016;-72
2022/01/13 09:33:11;;;;;;;30.17;16.13;;;;;;;2.88;73.89;101164.88;5089164;28;20028;-72
2022/01/13 09:35:36;;;;;;;31.30;14.80;;;;;;;2.90;73.15;101152.28;5080509;28;20100;-75
2022/01/13 09:38:03;;;;;;;26.77;14.55;;;;;;;3.19;71.38;101161.13;5071937;28;20623;-73
2022/01/13 09:40:29;;;;;;;26.73;15.50;;;;;;;3.21;71.89;101183.31;5075324;28;20035;-74
2022/01/13 09:42:55;;;;;;;25.77;14.90;;;;;;;3.00;71.48;101166.78;5074706;28;20086;-74
2022/01/13 09:45:21;;;;;;;27.15;14.68;;;;;;;3.01;71.80;101171.19;5079928;28;20020;-70
2022/01/13 09:47:51;;;;;;;23.75;14.18;;;;;;;3.33;71.58;101170.97;5066011;28;20089;-72
2022/01/13 09:50:20;;;;;;;26.33;14.18;;;;;;;3.56;70.57;101172.13;5053067;28;20368;-73
2022/01/13 09:52:46;;;;;;;22.35;13.77;;;;;;;3.66;69.02;101165.22;5058991;28;20081;-73
2022/01/13 09:55:13;;;;;;;23.67;13.20;;;;;;;3.84;69.85;101170.31;5061979;28;20130;-74
2022/01/13 09:57:51;;;;;;;27.63;14.23;;;;;;;4.00;70.03;101171.00;5068150;28;20284;-73
2022/01/13 10:00:24;;;;;;;27.05;13.70;;;;;;;3.94;68.75;101166.09;5065185;28;20024;-73
2022/01/13 10:02:49;;;;;;;22.88;13.50;;;;;;;4.15;68.98;101156.59;5065268;28;20062;-72
2022/01/13 10:05:17;;;;;;;22.20;13.15;;;;;;;4.49;67.70;101150.75;5066910;28;20047;-73
2022/01/13 10:07:45;;;;;;;23.15;13.93;;;;;;;4.54;68.64;101152.13;5064782;28;20093;-74
2022/01/13 10:10:14;;;;;;;22.25;12.52;;;;;;;4.78;68.19;101151.38;5069092;28;20043;-74
2022/01/13 10:12:42;;;;;;;;;;;;;;;4.78;66.84;101154.06;5061260;28;20475;-74
2022/01/13 10:18:05;;;;;;;22.75;13.48;;;;;;;4.71;65.53;101128.63;5061271;28;20070;-75
2022/01/13 10:20:31;;;;;;;20.48;12.80;;;;;;;5.12;65.29;101147.16;5069856;28;20103;-75
2022/01/13 10:23:07;;;;;;;23.25;13.02;;;;;;;5.01;66.03;101139.88;5070822;28;20448;-75
2022/01/13 10:25:36;;;;;;;22.55;13.43;;;;;;;5.43;64.99;101136.88;5060970;28;20021;-76
2022/01/13 10:28:20;;;;;;;23.92;13.23;;;;;;;5.18;64.94;101152.06;5071208;28;20063;-75
2022/01/13 10:30:49;;;;;;;18.70;11.50;;;;;;;5.33;65.22;101136.69;5062231;28;20025;-72
2022/01/13 10:33:29;;;;;;;21.60;12.23;;;;;;;5.44;63.89;101147.47;5063807;28;20032;-72
2022/01/13 10:36:10;;;;;;;24.50;12.20;;;;;;;5.38;63.35;101155.16;5067523;28;20022;-74
2022/01/13 10:38:57;;;;;;;21.98;13.15;;;;;;;5.34;64.16;101157.19;5064810;28;20177;-72
2022/01/13 10:41:37;;;;;;;21.95;12.27;;;;;;;4.96;65.84;101147.41;5064683;28;20087;-74
2022/01/13 10:44:18;;;;;;;19.75;11.70;;;;;;;4.71;67.09;101159.00;5068147;28;20031;-73
2022/01/13 10:47:02;;;;;;;22.80;12.43;;;;;;;4.49;67.48;101143.56;5061331;28;20470;-74
2022/01/13 10:49:40;;;;;;;19.58;11.43;;;;;;;4.79;68.01;101135.19;5072396;22;20093;-70
2022/01/13 10:52:26;;;;;;;27.17;12.57;;;;;;;4.86;66.86;101140.97;5053952;28;20035;-72
2022/01/13 10:55:08;;;;;;;23.85;11.52;;;;;;;6.30;63.28;101122.22;5059918;28;20029;-67
2022/01/13 10:57:35;;;;;;;19.30;11.00;;;;;;;9.34;55.76;101123.78;5053482;28;20098;-70
2022/01/13 11:00:03;;;;;;;20.70;10.85;;;;;;;11.05;51.00;101119.50;5063897;28;20020;-71
2022/01/13 11:02:28;;;;;;;18.30;10.68;;;;;;;12.06;46.08;101120.28;5067126;28;20056;-66
2022/01/13 11:04:54;;;;;;;18.52;12.10;;;;;;;12.15;45.67;101123.06;5061790;28;20075;-67
2022/01/13 11:07:27;;;;;;;26.75;11.80;;;;;;;12.53;44.22;101134.59;5066808;28;20024;-67
2022/01/13 11:09:58;;;;;;;17.80;11.75;;;;;;;12.77;43.18;101126.59;5060451;28;20098;-67
2022/01/13 11:12:32;;;;;;;13.95;10.27;;;;;;;13.69;42.29;101124.09;5060303;28;20029;-68
2022/01/13 11:15:05;;;;;;;14.68;10.27;;;;;;;14.06;41.64;101098.28;5061311;28;20024;-70
2022/01/13 11:17:33;;;;;;;11.60;8.57;;;;;;;14.60;40.49;101118.53;5064534;28;20020;-68
2022/01/13 11:19:59;;;;;;;12.90;8.68;;;;;;;14.56;38.87;101125.34;5059928;28;20028;-69
2022/01/13 11:22:25;;;;;;;11.50;8.25;;;;;;;14.07;40.92;101113.59;5066729;28;20040;-73
2022/01/13 11:24:50;;;;;;;9.30;6.90;;;;;;;14.09;39.97;101127.88;5069785;28;20023;-78
2022/01/13 11:27:18;;;;;;;9.55;6.88;;;;;;;15.56;37.14;101105.72;5066611;28;20032;-73
2022/01/13 11:29:45;;;;;;;8.90;7.50;;;;;;;14.55;38.30;101144.59;5068580;28;20532;-73